createdAt,value
2022-09-27T00:01:18.854Z,98847.03
2022-09-27T00:03:47.419Z,98846.16
2022-09-27T00:06:20.836Z,98847.09
2022-09-27T00:08:49.268Z,98849.81
2022-09-27T00:11:27.822Z,98843.63
2022-09-27T00:13:56.744Z,98843.63
2022-09-27T00:16:26.868Z,98841.94
2022-09-27T00:19:00.168Z,98842.78
2022-09-27T00:21:30.654Z,98843.63
2022-09-27T00:24:00.154Z,98840.06
2022-09-27T00:26:30.302Z,98839.16
2022-09-27T00:28:58.999Z,98842.63
2022-09-27T00:31:30.492Z,98836.53
2022-09-27T00:34:02.457Z,98832.13
2022-09-27T00:36:32.130Z,98829.53
2022-09-27T00:39:01.579Z,98830.34
2022-09-27T00:41:35.283Z,98829.41
2022-09-27T00:44:26.235Z,98830.34
2022-09-27T00:47:04.292Z,98832.97
2022-09-27T00:49:39.359Z,98833.81
2022-09-27T00:52:14.639Z,98840.84
2022-09-27T00:54:48.131Z,98832.97
2022-09-27T00:57:18.253Z,98827.75
2022-09-27T00:59:51.120Z,98829.53
2022-09-27T01:02:20.066Z,98826.06
2022-09-27T01:04:49.731Z,98826.97
2022-09-27T01:07:18.380Z,98828.75
2022-09-27T01:09:46.823Z,98825.28
2022-09-27T01:12:24.901Z,98824.44
2022-09-27T01:15:09.393Z,98825.34
2022-09-27T01:17:55.620Z,98835.00
2022-09-27T01:21:22.118Z,98826.38
2022-09-27T01:24:31.183Z,98827.28
2022-09-27T01:27:42.414Z,98830.00
2022-09-27T01:30:33.326Z,98826.53
2022-09-27T01:33:23.509Z,98824.84
2022-09-27T01:36:09.111Z,98818.75
2022-09-27T01:38:48.665Z,98835.31
2022-09-27T01:41:30.644Z,98817.06
2022-09-27T01:44:30.864Z,98818.78
2022-09-27T01:47:17.616Z,98821.41
2022-09-27T01:49:59.205Z,98821.41
2022-09-27T01:52:33.756Z,98817.91
2022-09-27T01:55:06.630Z,98826.66
2022-09-27T01:57:58.885Z,98821.41
2022-09-27T02:00:28.651Z,98819.72
2022-09-27T02:03:04.636Z,98822.34
2022-09-27T02:05:43.446Z,98818.03
2022-09-27T02:08:41.924Z,98825.91
2022-09-27T02:11:21.212Z,98823.28
2022-09-27T02:14:05.562Z,98822.44
2022-09-27T02:16:50.860Z,98816.31
2022-09-27T02:19:35.233Z,98822.44
2022-09-27T02:22:18.300Z,98820.66
2022-09-27T02:24:58.384Z,98828.53
2022-09-27T02:27:34.677Z,98831.13
2022-09-27T02:30:12.120Z,98821.56
2022-09-27T02:32:43.560Z,98824.19
2022-09-27T02:35:20.674Z,98828.53
2022-09-27T02:37:49.904Z,98832.03
2022-09-27T02:40:20.353Z,98837.28
2022-09-27T02:42:49.175Z,98836.53
2022-09-27T02:45:19.712Z,98849.63
2022-09-27T02:48:10.148Z,98846.25
2022-09-27T02:51:14.667Z,98851.47
2022-09-27T02:54:01.860Z,98860.28
2022-09-27T02:57:02.625Z,98861.97
2022-09-27T02:59:58.223Z,98861.97
2022-09-27T03:02:46.178Z,98870.59
2022-09-27T03:05:42.697Z,98869.66
2022-09-27T03:08:13.772Z,98873.06
2022-09-27T03:10:42.794Z,98873.81
2022-09-27T03:13:11.273Z,98880.69
2022-09-27T03:15:39.715Z,98878.00
2022-09-27T03:18:08.706Z,98885.88
2022-09-27T03:20:55.101Z,98885.88
2022-09-27T03:23:26.830Z,98888.41
2022-09-27T03:25:55.800Z,98892.81
2022-09-27T03:28:25.765Z,98900.75
2022-09-27T03:30:54.638Z,98898.97
2022-09-27T03:33:43.319Z,98905.16
2022-09-27T03:36:13.580Z,98900.81
2022-09-27T03:38:44.045Z,98904.38
2022-09-27T03:41:17.515Z,98899.16
2022-09-27T03:43:46.236Z,98907.13
2022-09-27T03:46:14.887Z,98907.13
2022-09-27T03:48:43.991Z,98917.59
2022-09-27T03:51:13.173Z,98914.22
2022-09-27T03:53:43.855Z,98919.44
2022-09-27T03:56:12.577Z,98905.50
2022-09-27T03:58:41.263Z,98909.91
2022-09-27T04:01:10.336Z,98915.03
2022-09-27T04:03:40.959Z,98927.25
2022-09-27T04:06:09.746Z,98931.59
2022-09-27T04:08:46.017Z,98928.25
2022-09-27T04:11:15.216Z,98934.31
2022-09-27T04:13:47.396Z,98928.25
2022-09-27T04:16:16.471Z,98936.84
2022-09-27T04:19:03.401Z,98943.81
2022-09-27T04:21:45.260Z,98934.31
2022-09-27T04:24:16.567Z,98936.84
2022-09-27T04:26:56.819Z,98943.81
2022-09-27T04:29:28.399Z,98938.56
2022-09-27T04:32:01.610Z,98947.31
2022-09-27T04:35:16.138Z,98942.25
2022-09-27T04:37:46.556Z,98954.44
2022-09-27T04:40:17.408Z,98951.03
2022-09-27T04:42:46.187Z,98957.22
2022-09-27T04:45:14.692Z,98952.88
2022-09-27T04:47:45.226Z,98959.06
2022-09-27T04:50:14.388Z,98966.91
2022-09-27T04:52:56.989Z,98958.13
2022-09-27T04:55:27.596Z,98962.47
2022-09-27T04:57:56.215Z,98961.53
2022-09-27T05:00:24.697Z,98969.38
2022-09-27T05:02:59.193Z,98965.81
2022-09-27T05:05:39.544Z,98966.75
2022-09-27T05:08:08.277Z,98968.44
2022-09-27T05:10:58.341Z,98975.41
2022-09-27T05:13:27.828Z,98976.25
2022-09-27T05:15:56.307Z,98978.94
2022-09-27T05:18:47.969Z,98984.16
2022-09-27T05:21:35.133Z,98991.97
2022-09-27T05:24:03.789Z,98992.75
2022-09-27T05:26:33.525Z,98999.72
2022-09-27T05:29:02.158Z,99004.91
2022-09-27T05:31:30.592Z,99005.75
2022-09-27T05:33:59.327Z,98995.25
2022-09-27T05:36:39.187Z,99002.19
2022-09-27T05:39:07.976Z,99011.81
2022-09-27T05:41:41.019Z,99006.56
2022-09-27T05:44:09.703Z,99015.31
2022-09-27T05:46:43.001Z,99019.53
2022-09-27T05:49:11.417Z,99021.19
2022-09-27T05:51:39.851Z,99032.38
2022-09-27T05:54:09.149Z,99031.47
2022-09-27T05:56:39.506Z,99040.97
2022-09-27T05:59:20.151Z,99042.66
2022-09-27T06:02:14.663Z,99044.31
2022-09-27T06:05:07.263Z,99046.78
2022-09-27T06:08:13.551Z,99053.75
2022-09-27T06:10:49.168Z,99057.13
2022-09-27T06:13:19.408Z,99047.44
2022-09-27T06:15:50.843Z,99055.91
2022-09-27T06:18:19.692Z,99047.81
2022-09-27T06:20:51.108Z,99064.22
2022-09-27T06:23:22.873Z,99054.44
2022-09-27T06:25:53.486Z,99051.59
2022-09-27T06:28:40.908Z,99058.28
2022-09-27T06:31:11.725Z,99060.59
2022-09-27T06:33:48.857Z,99065.63
2022-09-27T06:36:17.849Z,99064.38
2022-09-27T06:38:48.220Z,99062.22
2022-09-27T06:41:21.812Z,99070.75
2022-09-27T06:44:18.865Z,99077.63
2022-09-27T06:47:16.760Z,99076.63
2022-09-27T06:49:50.072Z,99079.16
2022-09-27T06:52:20.316Z,99081.63
2022-09-27T06:54:48.821Z,99080.44
2022-09-27T06:57:37.429Z,99089.84
2022-09-27T07:00:26.933Z,99095.66
2022-09-27T07:03:08.263Z,99097.19
2022-09-27T07:06:10.977Z,99101.41
2022-09-27T07:08:53.195Z,99104.81
2022-09-27T07:11:26.113Z,99104.66
2022-09-27T07:13:56.579Z,99105.34
2022-09-27T07:16:26.424Z,99108.75
2022-09-27T07:18:55.103Z,99107.88
2022-09-27T07:21:24.008Z,99122.63
2022-09-27T07:23:52.499Z,99132.09
2022-09-27T07:26:20.952Z,99130.25
2022-09-27T07:28:49.797Z,99139.66
2022-09-27T07:31:20.425Z,99135.09
2022-09-27T07:33:50.239Z,99134.19
2022-09-27T07:36:19.559Z,99141.97
2022-09-27T07:38:48.895Z,99153.16
2022-09-27T07:41:20.613Z,99155.78
2022-09-27T07:43:49.003Z,99159.16
2022-09-27T07:46:17.732Z,99152.06
2022-09-27T07:49:09.828Z,99157.06
2022-09-27T07:52:16.752Z,99166.25
2022-09-27T07:55:10.748Z,99164.06
2022-09-27T07:57:52.181Z,99163.75
2022-09-27T08:00:21.287Z,99163.25
2022-09-27T08:02:50.456Z,99162.06
2022-09-27T08:05:20.543Z,99171.38
2022-09-27T08:07:48.903Z,99172.13
2022-09-27T08:10:17.502Z,99169.25
2022-09-27T08:12:46.284Z,99177.66
2022-09-27T08:15:15.054Z,99168.69
2022-09-27T08:17:43.461Z,99171.31
2022-09-27T08:20:41.172Z,99169.00
2022-09-27T08:23:26.778Z,99163.84
2022-09-27T08:26:13.980Z,99183.19
2022-09-27T08:28:52.415Z,99171.59
2022-09-27T08:31:25.455Z,99173.31
2022-09-27T08:33:56.663Z,99178.38
2022-09-27T08:36:26.826Z,99176.16
2022-09-27T08:38:58.988Z,99178.94
2022-09-27T08:41:39.861Z,99181.09
2022-09-27T08:44:17.464Z,99182.25
2022-09-27T08:47:08.687Z,99182.53
2022-09-27T08:49:42.253Z,99176.88
2022-09-27T08:52:20.945Z,99176.19
2022-09-27T08:54:50.778Z,99190.72
2022-09-27T08:57:19.419Z,99179.03
2022-09-27T09:00:02.048Z,99181.75
2022-09-27T09:02:30.697Z,99184.69
2022-09-27T09:05:04.489Z,99185.13
2022-09-27T09:07:58.620Z,99193.81
2022-09-27T09:11:02.102Z,99187.38
2022-09-27T09:13:49.717Z,99199.81
2022-09-27T09:16:31.398Z,99197.38
2022-09-27T09:19:17.780Z,99196.75
2022-09-27T09:22:19.148Z,99210.81
2022-09-27T09:25:19.645Z,99209.72
2022-09-27T09:28:02.591Z,99213.47
2022-09-27T09:30:43.025Z,99210.56
2022-09-27T09:33:26.387Z,99213.94
2022-09-27T09:36:01.222Z,99196.16
2022-09-27T09:38:40.493Z,99195.66
2022-09-27T09:41:17.389Z,99181.22
2022-09-27T09:43:50.088Z,99182.69
2022-09-27T09:46:25.104Z,99184.44
2022-09-27T09:48:59.793Z,99174.09
2022-09-27T09:51:36.121Z,99176.38
2022-09-27T09:54:14.749Z,99174.44
2022-09-27T09:56:49.062Z,99184.00
2022-09-27T09:59:25.003Z,99179.69
2022-09-27T10:02:00.233Z,99175.50
2022-09-27T10:04:29.862Z,99180.81
2022-09-27T10:07:02.679Z,99186.72
2022-09-27T10:09:36.370Z,99187.31
2022-09-27T10:12:36.520Z,99179.22
2022-09-27T10:15:08.232Z,99179.59
2022-09-27T10:17:42.883Z,99175.47
2022-09-27T10:20:29.748Z,99186.97
2022-09-27T10:23:07.125Z,99178.03
2022-09-27T10:25:58.810Z,99178.09
2022-09-27T10:28:50.989Z,99183.75
2022-09-27T10:31:42.815Z,99176.97
2022-09-27T10:34:26.729Z,99182.91
2022-09-27T10:37:17.629Z,99179.97
2022-09-27T10:40:28.948Z,99169.25
2022-09-27T10:42:59.447Z,99183.00
2022-09-27T10:45:42.774Z,99172.91
2022-09-27T10:48:23.408Z,99181.31
2022-09-27T10:51:00.810Z,99175.91
2022-09-27T10:53:48.644Z,99167.34
2022-09-27T10:56:29.975Z,99172.56
2022-09-27T10:59:00.140Z,99164.94
2022-09-27T11:01:43.022Z,99168.22
2022-09-27T11:04:37.964Z,99155.44
2022-09-27T11:07:24.640Z,99162.59
2022-09-27T11:10:22.693Z,99162.41
2022-09-27T11:13:09.015Z,99168.91
2022-09-27T11:15:57.592Z,99163.75
2022-09-27T11:18:40.933Z,99166.78
2022-09-27T11:21:24.556Z,99163.69
2022-09-27T11:24:21.892Z,99170.00
2022-09-27T11:27:02.608Z,99154.06
2022-09-27T11:29:41.818Z,99160.84
2022-09-27T11:33:13.020Z,99157.50
2022-09-27T11:35:59.323Z,99138.38
2022-09-27T11:38:53.260Z,99160.56
2022-09-27T11:41:47.520Z,99148.63
2022-09-27T11:44:49.169Z,99137.06
2022-09-27T11:47:29.088Z,99145.47
2022-09-27T11:50:55.206Z,99134.38
2022-09-27T11:53:44.947Z,99140.44
2022-09-27T11:56:33.428Z,99132.53
2022-09-27T11:59:26.449Z,99142.22
2022-09-27T12:02:06.621Z,99125.03
2022-09-27T12:05:00.587Z,99124.47
2022-09-27T12:07:40.817Z,99121.22
2022-09-27T12:10:14.518Z,99116.84
2022-09-27T12:12:47.613Z,99112.72
2022-09-27T12:15:20.127Z,99114.50
2022-09-27T12:17:55.384Z,99108.69
2022-09-27T12:20:31.196Z,99100.66
2022-09-27T12:23:07.169Z,99103.66
2022-09-27T12:26:13.204Z,99085.81
2022-09-27T12:28:52.028Z,99072.09
2022-09-27T12:31:29.751Z,99089.25
2022-09-27T12:34:19.622Z,99083.81
2022-09-27T12:36:57.604Z,99088.38
2022-09-27T12:39:34.861Z,99078.50
2022-09-27T12:42:22.950Z,99104.56
2022-09-27T12:44:53.349Z,99088.53
2022-09-27T12:47:44.976Z,99090.16
2022-09-27T12:50:30.139Z,99100.06
2022-09-27T12:53:05.351Z,99092.63
2022-09-27T12:56:15.322Z,99111.44
2022-09-27T12:59:07.073Z,99093.56
2022-09-27T13:02:26.406Z,99100.97
2022-09-27T13:05:22.413Z,99085.56
2022-09-27T13:08:00.320Z,99091.72
2022-09-27T13:10:47.539Z,99091.69
2022-09-27T13:13:34.232Z,99089.25
2022-09-27T13:16:06.044Z,99098.59
2022-09-27T13:19:01.396Z,99100.66
2022-09-27T13:22:00.225Z,99104.88
2022-09-27T13:24:51.013Z,99103.94
2022-09-27T13:27:42.417Z,99104.09
2022-09-27T13:30:51.101Z,99100.50
2022-09-27T13:33:43.184Z,99091.44
2022-09-27T13:36:30.461Z,99091.16
2022-09-27T13:39:23.062Z,99087.41
2022-09-27T13:42:23.871Z,99085.59
2022-09-27T13:45:14.939Z,99085.97
2022-09-27T13:47:50.448Z,99088.16
2022-09-27T13:50:40.626Z,99086.53
2022-09-27T13:53:24.609Z,99093.63
2022-09-27T13:55:54.581Z,99084.88
2022-09-27T13:58:53.801Z,99080.53
2022-09-27T14:01:46.327Z,99094.75
2022-09-27T14:04:43.030Z,99084.88
2022-09-27T14:07:17.645Z,99087.06
2022-09-27T14:09:49.389Z,99083.78
2022-09-27T14:12:25.985Z,99084.91
2022-09-27T14:14:57.139Z,99085.66
2022-09-27T14:17:26.792Z,99076.63
2022-09-27T14:19:56.813Z,99075.88
2022-09-27T14:22:26.106Z,99074.38
2022-09-27T14:24:58.478Z,99077.00
2022-09-27T14:27:53.257Z,99085.78
2022-09-27T14:30:35.776Z,99084.53
2022-09-27T14:33:32.404Z,99083.41
2022-09-27T14:36:31.225Z,99076.97
2022-09-27T14:39:01.358Z,99076.97
2022-09-27T14:41:39.379Z,99078.88
2022-09-27T14:44:16.740Z,99079.81
2022-09-27T14:46:46.257Z,99082.44
2022-09-27T14:49:23.107Z,99087.91
2022-09-27T14:51:59.002Z,99079.56
2022-09-27T14:54:31.394Z,99090.56
2022-09-27T14:57:00.861Z,99092.84
2022-09-27T14:59:32.218Z,99094.16
2022-09-27T15:02:03.639Z,99096.78
2022-09-27T15:04:33.356Z,99096.59
2022-09-27T15:07:04.550Z,99100.84
2022-09-27T15:09:33.625Z,99101.69
2022-09-27T15:12:05.091Z,99101.88
2022-09-27T15:14:37.579Z,99099.53
2022-09-27T15:17:06.335Z,99098.88
2022-09-27T15:19:35.296Z,99102.63
2022-09-27T15:22:38.455Z,99101.13
2022-09-27T15:25:21.211Z,99096.25
2022-09-27T15:27:59.307Z,99100.00
2022-09-27T15:30:34.427Z,99107.34
2022-09-27T15:33:03.295Z,99113.97
2022-09-27T15:35:34.854Z,99126.25
2022-09-27T15:38:28.815Z,99137.69
2022-09-27T15:41:15.075Z,99135.59
2022-09-27T15:43:46.554Z,99133.50
2022-09-27T15:46:43.528Z,99132.16
2022-09-27T15:49:31.329Z,99132.16
2022-09-27T15:52:02.440Z,99126.13
2022-09-27T15:54:35.911Z,99124.53
2022-09-27T15:57:06.828Z,99120.59
2022-09-27T15:59:37.267Z,99127.13
2022-09-27T16:02:16.108Z,99134.56
2022-09-27T16:04:45.283Z,99129.22
2022-09-27T16:07:15.715Z,99129.41
2022-09-27T16:09:46.764Z,99135.03
2022-09-27T16:12:14.994Z,99131.91
2022-09-27T16:14:43.203Z,99130.53
2022-09-27T16:17:12.247Z,99143.38
2022-09-27T16:19:40.413Z,99148.97
2022-09-27T16:22:08.849Z,99143.91
2022-09-27T16:24:37.272Z,99150.16
2022-09-27T16:27:06.960Z,99147.47
2022-09-27T16:29:35.124Z,99153.56
2022-09-27T16:32:04.080Z,99144.66
2022-09-27T16:34:32.713Z,99150.84
2022-09-27T16:37:04.816Z,99155.25
2022-09-27T16:39:33.679Z,99158.00
2022-09-27T16:42:04.925Z,99160.78
2022-09-27T16:44:36.062Z,99153.16
2022-09-27T16:47:04.856Z,99158.75
2022-09-27T16:49:50.456Z,99159.00
2022-09-27T16:52:18.815Z,99159.31
2022-09-27T16:54:46.988Z,99163.25
2022-09-27T16:57:15.275Z,99166.38
2022-09-27T16:59:44.875Z,99172.91
2022-09-27T17:02:13.291Z,99180.34
2022-09-27T17:04:41.654Z,99173.66
2022-09-27T17:07:09.874Z,99179.25
2022-09-27T17:09:39.912Z,99177.72
2022-09-27T17:12:11.370Z,99186.69
2022-09-27T17:14:40.429Z,99176.34
2022-09-27T17:17:10.241Z,99179.88
2022-09-27T17:19:39.153Z,99184.63
2022-09-27T17:22:08.881Z,99177.28
2022-09-27T17:24:37.360Z,99178.97
2022-09-27T17:27:05.526Z,99177.97
2022-09-27T17:29:34.186Z,99178.84
2022-09-27T17:32:02.768Z,99180.72
2022-09-27T17:34:32.640Z,99192.94
2022-09-27T17:37:01.099Z,99188.34
2022-09-27T17:39:29.304Z,99190.63
2022-09-27T17:41:58.379Z,99202.28
2022-09-27T17:44:27.307Z,99186.84
2022-09-27T17:47:09.621Z,99190.41
2022-09-27T17:49:57.072Z,99190.41
2022-09-27T17:52:26.677Z,99195.63
2022-09-27T17:54:57.387Z,99189.47
2022-09-27T17:57:25.929Z,99191.16
2022-09-27T17:59:54.489Z,99189.31
2022-09-27T18:02:22.790Z,99198.13
2022-09-27T18:04:52.668Z,99199.81
2022-09-27T18:07:21.245Z,99191.09
2022-09-27T18:09:51.083Z,99199.00
2022-09-27T18:12:19.699Z,99189.56
2022-09-27T18:14:49.216Z,99187.91
2022-09-27T18:17:18.285Z,99196.69
2022-09-27T18:19:46.504Z,99195.06
2022-09-27T18:22:16.124Z,99198.59
2022-09-27T18:24:44.364Z,99195.22
2022-09-27T18:27:15.784Z,99208.38
2022-09-27T18:29:44.166Z,99201.44
2022-09-27T18:32:12.367Z,99206.81
2022-09-27T18:34:40.845Z,99219.13
2022-09-27T18:37:09.278Z,99211.47
2022-09-27T18:39:40.150Z,99222.97
2022-09-27T18:42:08.940Z,99220.47
2022-09-27T18:44:38.261Z,99223.22
2022-09-27T18:47:06.530Z,99227.69
2022-09-27T18:49:34.716Z,99230.44
2022-09-27T18:52:03.548Z,99236.66
2022-09-27T18:54:31.756Z,99229.88
2022-09-27T18:57:01.305Z,99232.53
2022-09-27T18:59:29.754Z,99239.69
2022-09-27T19:01:58.009Z,99240.59
2022-09-27T19:04:26.706Z,99249.34
2022-09-27T19:06:56.580Z,99244.97
2022-09-27T19:09:26.628Z,99248.50
2022-09-27T19:11:55.116Z,99241.59
2022-09-27T19:14:24.931Z,99231.13
2022-09-27T19:16:53.308Z,99232.00
2022-09-27T19:19:22.117Z,99232.94
2022-09-27T19:21:50.652Z,99228.69
2022-09-27T19:24:19.255Z,99233.19
2022-09-27T19:26:47.628Z,99226.34
2022-09-27T19:29:16.338Z,99227.31
2022-09-27T19:31:46.038Z,99223.13
2022-09-27T19:34:14.738Z,99224.97
2022-09-27T19:36:43.303Z,99224.16
2022-09-27T19:39:11.453Z,99219.81
2022-09-27T19:41:40.248Z,99213.66
2022-09-27T19:44:08.535Z,99218.88
2022-09-27T19:46:37.438Z,99218.03
2022-09-27T19:49:07.280Z,99217.91
2022-09-27T19:51:35.778Z,99214.34
2022-09-27T19:54:05.067Z,99220.44
2022-09-27T19:56:34.068Z,99221.31
2022-09-27T19:59:07.076Z,99228.25
2022-09-27T20:01:36.495Z,99218.56
2022-09-27T20:04:06.409Z,99201.94
2022-09-27T20:06:34.960Z,99208.84
2022-09-27T20:09:04.052Z,99204.41
2022-09-27T20:11:33.969Z,99203.44
2022-09-27T20:14:02.712Z,99198.97
2022-09-27T20:16:32.195Z,99198.81
2022-09-27T20:19:01.773Z,99209.19
2022-09-27T20:21:33.465Z,99198.59
2022-09-27T20:24:03.737Z,99197.56
2022-09-27T20:26:34.466Z,99201.91
2022-09-27T20:29:03.959Z,99191.34
2022-09-27T20:31:37.020Z,99185.13
2022-09-27T20:34:06.885Z,99189.44
2022-09-27T20:36:38.853Z,99182.38
2022-09-27T20:39:09.848Z,99173.53
2022-09-27T20:41:40.760Z,99177.84
2022-09-27T20:44:11.387Z,99180.41
2022-09-27T20:46:42.126Z,99166.38
2022-09-27T20:49:12.907Z,99160.25
2022-09-27T20:51:44.655Z,99153.22
2022-09-27T20:54:14.242Z,99154.06
2022-09-27T20:56:46.115Z,99158.31
2022-09-27T20:59:19.247Z,99156.56
2022-09-27T21:01:50.216Z,99160.09
2022-09-27T21:04:21.339Z,99157.41
2022-09-27T21:06:52.479Z,99151.31
2022-09-27T21:09:21.040Z,99140.00
2022-09-27T21:11:51.688Z,99148.75
2022-09-27T21:14:20.646Z,99127.94
2022-09-27T21:16:48.996Z,99139.44
2022-09-27T21:19:17.747Z,99120.47
2022-09-27T21:21:46.116Z,99105.78
2022-09-27T21:24:15.929Z,99114.72
2022-09-27T21:26:44.204Z,99111.53
2022-09-27T21:29:15.246Z,99112.53
2022-09-27T21:31:43.783Z,99095.13
2022-09-27T21:34:12.132Z,99103.88
2022-09-27T21:36:40.499Z,99104.81
2022-09-27T21:39:10.220Z,99096.81
2022-09-27T21:41:39.887Z,99094.09
2022-09-27T21:44:09.035Z,99089.59
2022-09-27T21:46:41.699Z,99098.00
2022-09-27T21:49:10.984Z,99090.94
2022-09-27T21:51:41.139Z,99091.66
2022-09-27T21:54:13.284Z,99089.72
2022-09-27T21:56:44.409Z,99090.56
2022-09-27T21:59:16.013Z,99099.22
2022-09-27T22:01:46.803Z,99088.75
2022-09-27T22:04:15.377Z,99092.16
2022-09-27T22:06:44.435Z,99086.03
2022-09-27T22:09:16.225Z,99080.75
2022-09-27T22:11:47.505Z,99086.78
2022-09-27T22:14:19.490Z,99074.44
2022-09-27T22:16:48.100Z,99072.66
2022-09-27T22:19:17.225Z,99062.97
2022-09-27T22:21:46.061Z,99069.03
2022-09-27T22:24:16.752Z,99060.28
2022-09-27T22:26:50.405Z,99051.50
2022-09-27T22:29:19.190Z,99042.69
2022-09-27T22:31:48.076Z,99053.19
2022-09-27T22:34:28.614Z,99045.25
2022-09-27T22:36:58.886Z,99035.53
2022-09-27T22:39:27.226Z,99026.84
2022-09-27T22:41:57.143Z,99018.97
2022-09-27T22:44:25.351Z,99016.34
2022-09-27T22:46:53.624Z,99016.34
2022-09-27T22:49:22.132Z,99005.81
2022-09-27T22:51:53.309Z,99004.88
2022-09-27T22:54:21.843Z,98995.09
2022-09-27T22:56:57.027Z,98996.81
2022-09-27T22:59:27.712Z,99000.28
2022-09-27T23:01:56.546Z,98982.94
2022-09-27T23:04:24.993Z,98977.84
2022-09-27T23:06:53.511Z,98981.41
2022-09-27T23:09:21.848Z,98980.63
2022-09-27T23:11:50.372Z,98976.16
2022-09-27T23:14:21.442Z,98966.53
2022-09-27T23:16:51.020Z,98967.38
2022-09-27T23:19:22.295Z,98974.28
2022-09-27T23:21:50.557Z,98965.84
2022-09-27T23:24:18.987Z,98947.97
2022-09-27T23:27:07.927Z,98940.53
2022-09-27T23:29:36.280Z,98934.06
2022-09-27T23:32:06.451Z,98921.28
2022-09-27T23:34:34.795Z,98924.19
2022-09-27T23:37:03.298Z,98932.25
2022-09-27T23:39:31.533Z,98914.16
2022-09-27T23:42:00.058Z,98909.09
2022-09-27T23:44:29.179Z,98900.44
2022-09-27T23:47:00.363Z,98897.06
2022-09-27T23:49:31.203Z,98890.97
2022-09-27T23:52:00.608Z,98885.84
2022-09-27T23:54:29.152Z,98891.13
2022-09-27T23:56:58.183Z,98886.72
2022-09-27T23:59:27.800Z,98882.38
